createdAt,value
2018-05-08T00:02:14.237Z,74.60
2018-05-08T00:04:43.429Z,75.50
2018-05-08T00:07:13.005Z,75.40
2018-05-08T00:09:41.081Z,75.40
2018-05-08T00:12:09.459Z,75.40
2018-05-08T00:14:37.557Z,75.30
2018-05-08T00:17:05.628Z,75.50
2018-05-08T00:19:34.900Z,75.50
2018-05-08T00:22:02.989Z,75.40
2018-05-08T00:24:31.044Z,75.50
2018-05-08T00:26:59.641Z,75.90
2018-05-08T00:29:27.702Z,75.90
2018-05-08T00:31:55.767Z,76.40
2018-05-08T00:34:24.276Z,76.50
2018-05-08T00:36:52.360Z,76.50
2018-05-08T00:39:21.188Z,75.80
2018-05-08T00:41:49.622Z,75.80
2018-05-08T00:44:18.481Z,76.00
2018-05-08T00:46:46.580Z,75.80
2018-05-08T00:49:15.685Z,75.90
2018-05-08T00:51:43.728Z,75.80
2018-05-08T00:54:11.788Z,75.70
2018-05-08T00:56:39.901Z,75.30
2018-05-08T00:59:09.061Z,75.20
2018-05-08T01:01:37.165Z,75.10
2018-05-08T01:04:06.357Z,75.00
2018-05-08T01:06:34.433Z,74.80
2018-05-08T01:09:03.286Z,75.40
2018-05-08T01:11:31.600Z,75.40
2018-05-08T01:13:59.672Z,75.50
2018-05-08T01:16:27.737Z,75.30
2018-05-08T01:18:56.812Z,75.70
2018-05-08T01:21:24.893Z,75.60
2018-05-08T01:23:52.961Z,75.70
2018-05-08T01:26:21.829Z,75.90
2018-05-08T01:28:49.925Z,75.80
2018-05-08T01:31:17.981Z,75.90
2018-05-08T01:33:46.576Z,75.90
2018-05-08T01:36:14.639Z,76.10
2018-05-08T01:38:42.697Z,75.90
2018-05-08T01:41:11.101Z,75.80
2018-05-08T01:43:39.184Z,76.20
2018-05-08T01:46:07.257Z,76.30
2018-05-08T01:48:35.843Z,76.70
2018-05-08T01:51:03.881Z,76.70
2018-05-08T01:53:31.988Z,77.10
2018-05-08T01:56:01.035Z,76.50
2018-05-08T01:58:29.132Z,76.40
2018-05-08T02:00:57.384Z,76.60
2018-05-08T02:03:26.729Z,76.60
2018-05-08T02:05:54.772Z,76.80
2018-05-08T02:08:22.845Z,77.00
2018-05-08T02:10:50.916Z,76.80
2018-05-08T02:13:19.021Z,77.20
2018-05-08T02:15:47.897Z,77.80
2018-05-08T02:18:16.185Z,77.80
2018-05-08T02:20:45.145Z,77.20
2018-05-08T02:23:13.104Z,77.10
2018-05-08T02:25:41.481Z,77.90
2018-05-08T02:28:09.599Z,77.80
2018-05-08T02:30:38.741Z,77.70
2018-05-08T02:33:07.145Z,77.70
2018-05-08T02:35:35.251Z,78.30
2018-05-08T02:38:04.097Z,79.30
2018-05-08T02:40:32.517Z,79.20
2018-05-08T02:43:01.375Z,79.80
2018-05-08T02:45:29.440Z,79.80
2018-05-08T02:47:57.513Z,79.60
2018-05-08T02:50:25.620Z,79.30
2018-05-08T02:52:54.461Z,79.80
2018-05-08T02:55:22.537Z,79.80
2018-05-08T02:57:50.620Z,79.90
2018-05-08T03:00:18.696Z,79.70
2018-05-08T03:02:47.368Z,79.20
2018-05-08T03:05:15.453Z,80.00
2018-05-08T03:07:43.553Z,80.10
2018-05-08T03:10:12.649Z,80.10
2018-05-08T03:12:41.497Z,79.80
2018-05-08T03:15:09.609Z,80.50
2018-05-08T03:17:38.856Z,79.70
2018-05-08T03:20:06.952Z,79.60
2018-05-08T03:22:35.024Z,79.50
2018-05-08T03:25:03.138Z,79.10
2018-05-08T03:27:32.062Z,80.20
2018-05-08T03:30:00.153Z,80.10
2018-05-08T03:32:28.224Z,80.20
2018-05-08T03:34:56.325Z,80.10
2018-05-08T03:37:25.165Z,80.30
2018-05-08T03:39:53.244Z,80.20
2018-05-08T03:42:21.328Z,79.80
2018-05-08T03:44:50.453Z,79.90
2018-05-08T03:47:19.312Z,79.70
2018-05-08T03:49:47.416Z,79.60
2018-05-08T03:52:16.581Z,79.80
2018-05-08T03:54:44.652Z,79.80
2018-05-08T03:57:12.742Z,80.60
2018-05-08T03:59:40.828Z,80.80
2018-05-08T04:02:08.900Z,80.40
2018-05-08T04:04:37.757Z,80.00
2018-05-08T04:07:06.125Z,80.00
2018-05-08T04:09:34.208Z,80.60
2018-05-08T04:12:02.287Z,81.80
2018-05-08T04:14:30.684Z,82.20
2018-05-08T04:16:58.734Z,82.50
2018-05-08T04:19:26.791Z,82.70
2018-05-08T04:21:54.864Z,81.10
2018-05-08T04:24:22.934Z,81.70
2018-05-08T04:26:51.013Z,81.80
2018-05-08T04:29:19.518Z,82.40
2018-05-08T04:31:48.609Z,82.00
2018-05-08T04:34:16.677Z,80.50
2018-05-08T04:36:45.677Z,80.50
2018-05-08T04:39:13.749Z,80.30
2018-05-08T04:41:41.796Z,80.00
2018-05-08T04:44:10.097Z,80.10
2018-05-08T04:46:38.945Z,79.40
2018-05-08T04:49:06.991Z,79.30
2018-05-08T04:51:35.097Z,79.70
2018-05-08T04:54:03.157Z,80.20
2018-05-08T04:56:31.257Z,79.60
2018-05-08T04:58:59.321Z,79.20
2018-05-08T05:01:27.449Z,79.00
2018-05-08T05:03:55.561Z,78.70
2018-05-08T05:06:24.351Z,78.50
2018-05-08T05:08:53.261Z,78.20
2018-05-08T05:11:21.313Z,77.90
2018-05-08T05:13:50.021Z,77.60
2018-05-08T05:16:18.061Z,77.50
2018-05-08T05:18:46.125Z,77.10
2018-05-08T05:21:14.239Z,77.00
2018-05-08T05:23:43.112Z,76.80
2018-05-08T05:26:11.161Z,77.00
2018-05-08T05:28:40.216Z,76.10
2018-05-08T05:31:10.410Z,74.90
2018-05-08T05:33:39.377Z,74.90
2018-05-08T05:36:07.470Z,74.00
2018-05-08T05:38:36.261Z,74.10
2018-05-08T05:41:05.433Z,73.50
2018-05-08T05:43:34.120Z,73.30
2018-05-08T05:46:03.169Z,72.70
2018-05-08T05:48:32.749Z,72.40
2018-05-08T05:51:03.173Z,72.10
2018-05-08T05:53:32.270Z,72.10
2018-05-08T05:56:01.162Z,71.80
2018-05-08T05:58:29.965Z,71.40
2018-05-08T06:00:59.577Z,67.80
2018-05-08T06:03:28.430Z,66.50
2018-05-08T06:05:56.501Z,66.40
2018-05-08T06:08:25.513Z,66.10
2018-05-08T06:10:53.607Z,65.60
2018-05-08T06:13:22.445Z,64.70
2018-05-08T06:15:50.577Z,64.60
2018-05-08T06:18:20.174Z,63.40
2018-05-08T06:20:49.732Z,61.70
2018-05-08T06:23:18.570Z,61.60
2018-05-08T06:25:48.432Z,60.10
2018-05-08T06:28:17.373Z,60.00
2018-05-08T06:30:46.257Z,60.00
2018-05-08T06:33:15.152Z,60.10
2018-05-08T06:35:44.629Z,58.40
2018-05-08T06:38:12.729Z,58.30
2018-05-08T06:40:41.561Z,58.60
2018-05-08T06:43:10.407Z,58.50
2018-05-08T06:45:39.286Z,58.00
2018-05-08T06:48:08.104Z,58.50
2018-05-08T06:50:36.211Z,57.60
2018-05-08T06:53:04.285Z,56.70
2018-05-08T06:55:33.013Z,55.70
2018-05-08T06:58:01.497Z,56.10
2018-05-08T07:00:29.565Z,55.30
2018-05-08T07:02:57.639Z,55.50
2018-05-08T07:05:26.635Z,54.70
2018-05-08T07:07:54.715Z,55.00
2018-05-08T07:10:23.626Z,52.70
2018-05-08T07:12:53.325Z,52.00
2018-05-08T07:15:23.284Z,52.10
2018-05-08T07:17:52.104Z,50.40
2018-05-08T07:20:21.161Z,47.90
2018-05-08T07:22:49.804Z,47.20
2018-05-08T07:25:17.864Z,43.80
2018-05-08T07:27:47.475Z,40.30
2018-05-08T07:30:17.133Z,38.80
2018-05-08T07:32:46.091Z,38.70
2018-05-08T07:35:15.585Z,35.50
2018-05-08T07:37:45.033Z,35.70
2018-05-08T07:40:13.970Z,35.70
2018-05-08T07:42:42.869Z,34.80
2018-05-08T07:45:12.568Z,33.50
2018-05-08T07:47:41.619Z,33.40
2018-05-08T07:50:10.451Z,34.20
2018-05-08T07:52:40.785Z,32.10
2018-05-08T07:55:10.496Z,32.90
2018-05-08T07:57:38.997Z,32.80
2018-05-08T08:00:07.945Z,32.40
2018-05-08T08:02:36.845Z,31.00
2018-05-08T08:05:05.519Z,28.00
2018-05-08T08:07:33.629Z,29.80
2018-05-08T08:10:01.661Z,30.10
2018-05-08T08:12:30.985Z,29.20
2018-05-08T08:15:00.582Z,27.20
2018-05-08T08:17:29.939Z,27.20
2018-05-08T08:19:58.465Z,27.90
2018-05-08T08:22:28.036Z,27.40
2018-05-08T08:24:56.810Z,27.30
2018-05-08T08:27:26.061Z,27.80
2018-05-08T08:29:56.581Z,26.50
2018-05-08T08:32:26.861Z,26.00
2018-05-08T08:34:56.264Z,26.00
2018-05-08T08:37:24.997Z,26.40
2018-05-08T08:39:54.046Z,26.40
2018-05-08T08:42:22.894Z,25.50
2018-05-08T08:57:51.753Z,24.70
2018-05-08T09:00:20.571Z,25.50
2018-05-08T09:02:50.334Z,24.50
2018-05-08T09:05:18.585Z,24.20
2018-05-08T09:07:47.402Z,24.30
2018-05-08T09:10:15.858Z,23.40
2018-05-08T09:12:43.957Z,23.50
2018-05-08T09:15:12.673Z,23.80
2018-05-08T09:17:43.616Z,24.70
2018-05-08T09:20:13.843Z,24.40
2018-05-08T09:22:43.230Z,23.60
2018-05-08T09:25:13.524Z,25.30
2018-05-08T09:27:43.575Z,25.30
2018-05-08T09:30:13.706Z,25.20
2018-05-08T09:32:42.879Z,25.10
2018-05-08T09:35:14.209Z,23.80
2018-05-08T09:37:43.277Z,23.90
2018-05-08T09:40:11.921Z,24.00
2018-05-08T09:42:42.521Z,23.30
2018-05-08T09:45:11.189Z,23.30
2018-05-08T09:47:40.742Z,23.60
2018-05-08T09:50:09.430Z,23.10
2018-05-08T09:52:38.893Z,23.30
2018-05-08T09:55:07.413Z,23.40
2018-05-08T09:57:35.481Z,23.00
2018-05-08T10:00:03.541Z,23.30
2018-05-08T10:02:32.020Z,22.90
2018-05-08T10:05:01.686Z,23.20
2018-05-08T10:07:30.309Z,23.00
2018-05-08T10:09:59.305Z,21.90
2018-05-08T10:12:28.088Z,21.90
2018-05-08T10:14:58.081Z,23.10
2018-05-08T10:17:27.089Z,22.80
2018-05-08T10:19:55.864Z,23.20
2018-05-08T10:22:24.656Z,23.30
2018-05-08T10:24:53.557Z,22.60
2018-05-08T10:27:22.545Z,21.70
2018-05-08T10:29:51.377Z,23.20
2018-05-08T10:32:21.244Z,23.40
2018-05-08T10:34:50.069Z,23.40
2018-05-08T10:37:19.548Z,22.60
2018-05-08T10:39:50.324Z,24.70
2018-05-08T10:42:19.101Z,24.10
2018-05-08T10:44:47.992Z,24.00
2018-05-08T10:47:17.468Z,22.80
2018-05-08T10:49:46.175Z,22.80
2018-05-08T10:52:15.894Z,22.00
2018-05-08T10:54:46.313Z,22.10
2018-05-08T10:57:15.808Z,22.30
2018-05-08T10:59:45.097Z,22.30
2018-05-08T11:02:13.721Z,22.10
2018-05-08T11:04:42.424Z,21.70
2018-05-08T11:07:11.967Z,20.60
2018-05-08T11:09:40.786Z,21.30
2018-05-08T11:12:10.393Z,21.10
2018-05-08T11:14:39.157Z,21.10
2018-05-08T11:17:07.927Z,21.00
2018-05-08T11:19:37.345Z,21.40
2018-05-08T11:22:06.265Z,21.20
2018-05-08T11:24:35.997Z,21.40
2018-05-08T11:27:06.353Z,20.10
2018-05-08T11:29:34.421Z,20.10
2018-05-08T11:32:03.361Z,20.60
2018-05-08T11:34:32.967Z,21.50
2018-05-08T11:37:03.189Z,21.10
2018-05-08T11:39:31.265Z,21.50
2018-05-08T11:42:00.135Z,20.80
2018-05-08T11:44:29.446Z,20.80
2018-05-08T11:46:58.282Z,21.00
2018-05-08T11:49:27.361Z,21.00
2018-05-08T11:51:56.182Z,21.90
2018-05-08T11:54:24.988Z,22.00
2018-05-08T11:56:53.972Z,21.20
2018-05-08T11:59:22.557Z,20.80
2018-05-08T12:01:51.044Z,20.00
2018-05-08T12:04:20.064Z,20.80
2018-05-08T12:06:48.920Z,21.20
2018-05-08T12:09:17.719Z,21.10
2018-05-08T12:11:45.786Z,20.50
2018-05-08T12:14:13.841Z,19.80
2018-05-08T12:16:42.253Z,20.00
2018-05-08T12:19:10.951Z,20.30
2018-05-08T12:21:40.624Z,20.60
2018-05-08T12:24:10.209Z,20.80
2018-05-08T12:26:38.993Z,20.30
2018-05-08T12:29:07.621Z,20.20
2018-05-08T12:31:35.745Z,19.90
2018-05-08T12:34:03.802Z,19.60
2018-05-08T12:36:32.197Z,20.40
2018-05-08T12:39:01.229Z,21.60
2018-05-08T12:41:30.083Z,19.80
2018-05-08T12:43:58.968Z,19.70
2018-05-08T12:46:27.902Z,19.00
2018-05-08T12:48:57.613Z,20.50
2018-05-08T12:51:28.172Z,19.30
2018-05-08T12:53:56.889Z,19.30
2018-05-08T12:56:25.612Z,20.00
2018-05-08T12:58:55.170Z,20.10
2018-05-08T13:01:24.881Z,19.80
2018-05-08T13:03:53.666Z,19.80
2018-05-08T13:06:22.497Z,21.80
2018-05-08T13:08:51.194Z,21.60
2018-05-08T13:11:20.813Z,20.80
2018-05-08T13:13:50.613Z,20.20
2018-05-08T13:16:20.070Z,19.90
2018-05-08T13:18:49.392Z,19.90
2018-05-08T13:21:18.518Z,20.20
2018-05-08T13:23:47.370Z,20.90
2018-05-08T13:26:15.961Z,20.90
2018-05-08T13:28:44.777Z,19.80
2018-05-08T13:31:14.669Z,19.50
2018-05-08T13:33:42.733Z,19.50
2018-05-08T13:36:11.449Z,19.70
2018-05-08T13:38:40.948Z,19.70
2018-05-08T13:41:10.568Z,19.00
2018-05-08T13:43:39.856Z,18.30
2018-05-08T13:46:09.646Z,18.10
2018-05-08T13:48:37.807Z,18.20
2018-05-08T13:51:05.909Z,18.10
2018-05-08T13:53:34.775Z,18.00
2018-05-08T13:56:03.754Z,18.00
2018-05-08T13:58:31.825Z,19.20
2018-05-08T14:00:59.954Z,18.70
2018-05-08T14:03:28.438Z,17.80
2018-05-08T14:05:57.261Z,17.00
2018-05-08T14:08:25.331Z,17.00
2018-05-08T14:10:53.617Z,17.00
2018-05-08T14:13:21.781Z,16.00
2018-05-08T14:15:51.421Z,16.00
2018-05-08T14:18:19.613Z,16.60
2018-05-08T14:20:48.362Z,18.00
2018-05-08T14:23:17.402Z,19.40
2018-05-08T14:25:46.299Z,19.20
2018-05-08T14:28:15.133Z,18.50
2018-05-08T14:30:43.303Z,18.40
2018-05-08T14:33:12.197Z,19.00
2018-05-08T14:35:40.285Z,18.90
2018-05-08T14:38:08.381Z,19.20
2018-05-08T14:40:37.245Z,19.40
2018-05-08T14:43:06.114Z,19.40
2018-05-08T14:45:34.193Z,20.60
2018-05-08T14:48:02.616Z,20.90
2018-05-08T14:50:31.477Z,21.30
2018-05-08T14:52:59.537Z,20.80
2018-05-08T14:55:28.423Z,20.10
2018-05-08T14:57:57.322Z,20.30
2018-05-08T15:00:25.413Z,20.40
2018-05-08T15:02:53.469Z,20.80
2018-05-08T15:05:21.541Z,20.50
2018-05-08T15:07:50.141Z,20.30
2018-05-08T15:10:18.225Z,20.30
2018-05-08T15:12:46.297Z,21.00
2018-05-08T15:15:14.641Z,20.60
2018-05-08T15:17:42.709Z,20.70
2018-05-08T15:20:11.816Z,20.80
2018-05-08T15:22:40.608Z,22.10
2018-05-08T15:25:09.373Z,22.50
2018-05-08T15:27:37.433Z,22.90
2018-05-08T15:30:05.537Z,23.10
2018-05-08T15:32:33.929Z,23.30
2018-05-08T15:35:01.981Z,23.50
2018-05-08T15:37:30.953Z,23.30
2018-05-08T15:39:59.045Z,24.20
2018-05-08T15:42:27.133Z,24.20
2018-05-08T15:44:55.493Z,23.90
2018-05-08T15:47:23.676Z,24.50
2018-05-08T15:49:52.380Z,24.70
2018-05-08T15:52:21.348Z,25.20
2018-05-08T15:54:49.441Z,24.60
2018-05-08T15:57:18.024Z,24.30
2018-05-08T15:59:46.377Z,23.30
2018-05-08T16:02:15.250Z,24.60
2018-05-08T16:04:43.668Z,24.40
2018-05-08T16:07:11.717Z,25.00
2018-05-08T16:09:40.664Z,25.60
2018-05-08T16:12:08.709Z,25.60
2018-05-08T16:14:36.756Z,25.60
2018-05-08T16:17:05.565Z,25.70
2018-05-08T16:19:33.633Z,25.50
2018-05-08T16:22:01.794Z,26.30
2018-05-08T16:24:30.489Z,25.50
2018-05-08T16:26:59.170Z,25.50
2018-05-08T16:29:27.852Z,26.10
2018-05-08T16:31:55.946Z,25.50
2018-05-08T16:34:24.810Z,26.30
2018-05-08T16:36:53.690Z,26.20
2018-05-08T16:39:22.555Z,26.60
2018-05-08T16:41:50.558Z,27.10
2018-05-08T16:44:18.649Z,27.30
2018-05-08T16:46:47.929Z,27.20
2018-05-08T16:49:16.841Z,27.70
2018-05-08T16:51:44.909Z,28.30
2018-05-08T16:54:13.801Z,27.80
2018-05-08T16:56:42.592Z,28.10
2018-05-08T16:59:10.684Z,27.90
2018-05-08T17:01:39.558Z,28.60
2018-05-08T17:04:07.929Z,28.70
2018-05-08T17:06:36.805Z,28.80
2018-05-08T17:09:06.105Z,28.70
2018-05-08T17:11:34.201Z,28.60
2018-05-08T17:14:02.323Z,29.10
2018-05-08T17:16:30.728Z,29.50
2018-05-08T17:18:59.837Z,29.60
2018-05-08T17:21:28.513Z,29.80
2018-05-08T17:23:57.605Z,29.70
2018-05-08T17:26:25.677Z,29.70
2018-05-08T17:28:53.761Z,30.30
2018-05-08T17:31:22.836Z,30.10
2018-05-08T17:33:50.913Z,30.50
2018-05-08T17:36:19.017Z,31.30
2018-05-08T17:38:47.853Z,30.20
2018-05-08T17:41:16.684Z,30.10
2018-05-08T17:43:44.769Z,30.00
2018-05-08T17:46:12.845Z,30.70
2018-05-08T17:48:41.672Z,31.50
2018-05-08T17:51:09.743Z,30.80
2018-05-08T17:53:37.812Z,30.80
2018-05-08T17:56:06.931Z,30.80
2018-05-08T17:58:34.980Z,31.30
2018-05-08T18:01:03.029Z,31.40
2018-05-08T18:03:31.844Z,31.60
2018-05-08T18:05:59.938Z,32.20
2018-05-08T18:08:29.025Z,32.50
2018-05-08T18:10:57.795Z,34.30
2018-05-08T18:13:26.833Z,32.90
2018-05-08T18:15:56.134Z,32.80
2018-05-08T18:18:24.893Z,32.80
2018-05-08T18:20:54.591Z,32.70
2018-05-08T18:23:22.673Z,33.20
2018-05-08T18:25:50.764Z,34.70
2018-05-08T18:28:19.129Z,34.30
2018-05-08T18:30:47.181Z,34.40
2018-05-08T18:33:15.264Z,35.60
2018-05-08T18:35:43.645Z,36.90
2018-05-08T18:38:11.717Z,38.40
2018-05-08T18:40:39.773Z,38.90
2018-05-08T18:43:08.805Z,40.00
2018-05-08T18:45:36.877Z,41.60
2018-05-08T18:48:04.921Z,41.40
2018-05-08T18:50:33.037Z,41.80
2018-05-08T18:53:01.605Z,43.40
2018-05-08T18:55:30.425Z,44.50
2018-05-08T18:57:59.297Z,45.70
2018-05-08T19:00:27.369Z,45.60
2018-05-08T19:02:55.433Z,46.60
2018-05-08T19:05:23.517Z,47.70
2018-05-08T19:07:52.375Z,48.40
2018-05-08T19:10:21.045Z,48.30
2018-05-08T19:12:49.130Z,48.50
2018-05-08T19:15:17.189Z,48.90
2018-05-08T19:17:45.572Z,49.00
2018-05-08T19:20:13.629Z,49.20
2018-05-08T19:22:42.080Z,49.10
2018-05-08T19:25:10.953Z,49.80
2018-05-08T19:27:39.789Z,50.00
2018-05-08T19:30:08.825Z,49.90
2018-05-08T19:32:36.879Z,49.90
2018-05-08T19:35:04.978Z,50.20
2018-05-08T19:37:33.373Z,50.80
2018-05-08T19:40:02.196Z,51.20
2018-05-08T19:42:30.294Z,51.20
2018-05-08T19:44:58.374Z,51.50
2018-05-08T19:47:27.181Z,51.40
2018-05-08T19:49:55.225Z,50.80
2018-05-08T19:52:23.383Z,51.10
2018-05-08T19:54:51.653Z,51.30
2018-05-08T19:57:20.693Z,51.50
2018-05-08T19:59:48.739Z,52.00
2018-05-08T20:02:16.794Z,52.50
2018-05-08T20:04:45.168Z,52.60
2018-05-08T20:07:13.234Z,52.80
2018-05-08T20:09:41.304Z,53.60
2018-05-08T20:12:10.101Z,53.90
2018-05-08T20:14:38.932Z,53.60
2018-05-08T20:17:07.005Z,53.60
2018-05-08T20:19:36.573Z,54.30
2018-05-08T20:22:04.881Z,54.30
2018-05-08T20:24:33.881Z,54.70
2018-05-08T20:27:03.445Z,55.40
2018-05-08T20:29:32.673Z,54.90
2018-05-08T20:32:00.734Z,54.70
2018-05-08T20:34:28.785Z,54.50
2018-05-08T20:36:57.909Z,55.00
2018-05-08T20:39:27.009Z,55.70
2018-05-08T20:41:56.077Z,56.00
2018-05-08T20:44:24.132Z,56.00
2018-05-08T20:46:52.227Z,56.60
2018-05-08T20:49:20.549Z,56.90
2018-05-08T20:51:49.372Z,56.80
2018-05-08T20:54:17.443Z,56.80
2018-05-08T20:56:46.358Z,57.10
2018-05-08T20:59:14.445Z,57.40
2018-05-08T21:01:42.489Z,57.30
2018-05-08T21:04:10.556Z,57.30
2018-05-08T21:06:38.642Z,57.60
2018-05-08T21:09:06.718Z,57.90
2018-05-08T21:11:34.805Z,58.00
2018-05-08T21:14:02.873Z,57.80
2018-05-08T21:16:30.940Z,57.60
2018-05-08T21:18:59.629Z,57.60
2018-05-08T21:21:27.705Z,57.50
2018-05-08T21:23:57.269Z,57.70
2018-05-08T21:26:25.361Z,57.70
2018-05-08T21:28:54.765Z,58.00
2018-05-08T21:31:22.858Z,57.90
2018-05-08T21:33:53.074Z,58.30
2018-05-08T21:36:21.862Z,58.20
2018-05-08T21:38:49.918Z,58.70
2018-05-08T21:41:18.006Z,59.00
2018-05-08T21:43:46.325Z,58.80
2018-05-08T21:46:14.429Z,58.80
2018-05-08T21:48:42.489Z,58.90
2018-05-08T21:51:10.619Z,59.10
2018-05-08T21:53:38.652Z,59.50
2018-05-08T21:56:06.745Z,59.70
2018-05-08T21:58:34.825Z,60.20
2018-05-08T22:01:02.910Z,60.30
2018-05-08T22:03:31.734Z,61.20
2018-05-08T22:05:59.850Z,61.10
2018-05-08T22:08:29.410Z,61.50
2018-05-08T22:10:57.486Z,61.40
2018-05-08T22:13:26.110Z,61.50
2018-05-08T22:15:54.187Z,61.90
2018-05-08T22:18:22.253Z,62.20
2018-05-08T22:20:50.382Z,62.40
2018-05-08T22:23:19.297Z,62.20
2018-05-08T22:25:47.356Z,62.60
2018-05-08T22:28:15.972Z,62.70
2018-05-08T22:30:44.025Z,62.80
2018-05-08T22:33:12.085Z,63.10
2018-05-08T22:35:40.495Z,63.50
2018-05-08T22:38:08.932Z,64.20
2018-05-08T22:40:36.997Z,64.10
2018-05-08T22:43:05.393Z,63.90
2018-05-08T22:45:33.555Z,63.90
2018-05-08T22:48:01.597Z,64.10
2018-05-08T22:50:30.150Z,64.00
2018-05-08T22:52:58.413Z,64.10
2018-05-08T22:55:26.499Z,64.10
2018-05-08T22:57:54.589Z,64.30
2018-05-08T23:00:23.441Z,65.00
2018-05-08T23:02:51.502Z,64.90
2018-05-08T23:05:19.921Z,65.10
2018-05-08T23:07:48.780Z,65.20
2018-05-08T23:10:16.855Z,65.20
2018-05-08T23:12:45.117Z,65.50
2018-05-08T23:15:13.181Z,65.70
2018-05-08T23:17:41.373Z,65.60
2018-05-08T23:20:09.733Z,66.20
2018-05-08T23:22:37.803Z,67.80
2018-05-08T23:25:05.850Z,67.10
2018-05-08T23:27:33.948Z,67.00
2018-05-08T23:30:02.222Z,67.40
2018-05-08T23:32:30.294Z,67.70
2018-05-08T23:34:58.378Z,68.20
2018-05-08T23:37:26.456Z,68.50
2018-05-08T23:39:54.529Z,68.70
2018-05-08T23:42:22.897Z,68.60
2018-05-08T23:44:50.981Z,68.00
2018-05-08T23:47:19.036Z,68.60
2018-05-08T23:49:47.137Z,69.50
2018-05-08T23:52:15.217Z,69.80
2018-05-08T23:54:43.269Z,69.90
2018-05-08T23:57:11.764Z,70.20
2018-05-08T23:59:39.852Z,70.30
